Time;durP1;ratioP1;P1;durP2;ratioP2;P2;SDS_P1;SDS_P2;PMS_P1;PMS_P2;Temp;Humidity;BMP_temperature;BMP_pressure;BME280_temperature;BME280_humidity;BME280_pressure;Samples;Min_cycle;Max_cycle;Signal;HPM_P1;HPM_P2
2023/05/28 00:00:47;;;;;;;10.63;4.47;;;11.60;99.90;;;;;;5094925;28;20227;-78
2023/05/28 00:03:17;;;;;;;10.10;4.53;;;11.60;99.90;;;;;;5094459;28;20203;-78
2023/05/28 00:05:46;;;;;;;8.77;4.20;;;11.50;99.90;;;;;;5094589;28;20245;-77
2023/05/28 00:08:16;;;;;;;7.73;4.13;;;11.50;99.90;;;;;;5094642;28;20210;-76
2023/05/28 00:10:44;;;;;;;9.77;4.80;;;11.40;99.90;;;;;;5094603;28;20215;-78
2023/05/28 00:13:12;;;;;;;6.50;3.93;;;11.40;99.90;;;;;;5094051;28;20276;-78
2023/05/28 00:15:40;;;;;;;11.90;4.90;;;11.40;99.90;;;;;;5094552;28;20203;-79
2023/05/28 00:18:11;;;;;;;10.57;4.70;;;11.30;99.90;;;;;;5094629;28;20211;-78
2023/05/28 00:20:40;;;;;;;10.40;4.43;;;11.30;99.90;;;;;;5094484;28;20187;-77
2023/05/28 00:23:08;;;;;;;11.07;4.53;;;11.30;99.90;;;;;;5094011;28;20294;-77
2023/05/28 00:25:37;;;;;;;7.20;4.23;;;11.20;99.90;;;;;;5094020;28;20202;-77
2023/05/28 00:28:06;;;;;;;13.40;4.47;;;11.20;99.90;;;;;;5094462;28;20211;-76
2023/05/28 00:30:34;;;;;;;10.20;4.67;;;11.20;99.90;;;;;;5094433;28;20214;-76
2023/05/28 00:33:02;;;;;;;8.13;4.83;;;11.20;99.90;;;;;;5093963;28;20226;-79
2023/05/28 00:35:30;;;;;;;6.90;4.20;;;11.10;99.90;;;;;;5103545;28;20660;-78
2023/05/28 00:37:58;;;;;;;9.70;4.20;;;11.10;99.90;;;;;;5114425;28;20281;-77
2023/05/28 00:40:26;;;;;;;9.97;4.30;;;11.10;99.90;;;;;;5114448;28;20271;-78
2023/05/28 00:42:56;;;;;;;8.63;4.10;;;11.10;99.90;;;;;;5105482;28;20214;-78
2023/05/28 00:45:24;;;;;;;11.37;4.70;;;11.00;99.90;;;;;;5093792;28;20568;-78
2023/05/28 00:47:52;;;;;;;10.50;4.73;;;11.00;99.90;;;;;;5093795;28;20260;-78
2023/05/28 00:50:21;;;;;;;9.70;4.60;;;11.00;99.90;;;;;;5093850;28;20207;-77
2023/05/28 00:52:51;;;;;;;9.03;4.07;;;10.90;99.90;;;;;;5093709;28;20207;-77
2023/05/28 00:55:20;;;;;;;11.70;4.20;;;10.90;99.90;;;;;;5096142;28;20229;-77
2023/05/28 00:57:48;;;;;;;9.30;4.63;;;10.90;99.90;;;;;;5113980;28;20206;-78
2023/05/28 01:00:18;;;;;;;12.00;4.63;;;10.80;99.90;;;;;;5113920;28;20301;-79
2023/05/28 01:02:46;;;;;;;12.07;4.53;;;10.80;99.90;;;;;;5114039;28;20213;-78
2023/05/28 01:05:17;;;;;;;9.17;4.73;;;10.80;99.90;;;;;;5097577;28;20203;-78
2023/05/28 01:07:45;;;;;;;12.53;4.77;;;10.80;99.90;;;;;;5093320;28;20253;-78
2023/05/28 01:10:13;;;;;;;10.57;4.90;;;10.80;99.90;;;;;;5093504;28;20203;-76
2023/05/28 01:12:44;;;;;;;10.40;4.53;;;10.90;99.90;;;;;;5092673;28;20301;-77
2023/05/28 01:15:13;;;;;;;10.67;4.40;;;10.90;99.90;;;;;;5093451;28;20238;-78
2023/05/28 01:17:42;;;;;;;11.63;4.63;;;10.90;99.90;;;;;;5093426;28;20257;-78
2023/05/28 01:20:13;;;;;;;9.47;4.73;;;10.90;99.90;;;;;;5093053;28;20203;-77
2023/05/28 01:22:47;;;;;;;8.90;4.37;;;11.00;99.90;;;;;;5092168;28;20211;-78
2023/05/28 01:25:18;;;;;;;9.73;4.40;;;10.90;99.90;;;;;;5093141;28;20197;-78
2023/05/28 01:27:46;;;;;;;8.77;4.53;;;10.90;99.90;;;;;;5092880;28;20231;-78
2023/05/28 01:30:14;;;;;;;9.80;4.83;;;11.00;99.90;;;;;;5096232;28;20267;-79
2023/05/28 01:32:43;;;;;;;11.53;4.80;;;10.90;99.90;;;;;;5113202;28;20527;-77
2023/05/28 01:35:12;;;;;;;13.03;4.70;;;10.90;99.90;;;;;;5112848;28;20268;-76
2023/05/28 01:37:44;;;;;;;10.63;4.70;;;10.90;99.90;;;;;;5112852;28;20210;-77
2023/05/28 01:40:14;;;;;;;9.37;4.63;;;10.90;99.90;;;;;;5112667;28;20218;-78
2023/05/28 01:42:46;;;;;;;10.63;4.90;;;10.90;99.90;;;;;;5112885;28;20217;-77
2023/05/28 01:45:16;;;;;;;11.77;4.40;;;10.80;99.90;;;;;;5112992;28;20277;-78
2023/05/28 01:47:45;;;;;;;11.10;4.27;;;10.90;99.90;;;;;;5103632;28;20246;-76
2023/05/28 01:50:13;;;;;;;10.90;5.20;;;10.90;99.90;;;;;;5092383;28;20294;-77
2023/05/28 01:52:41;;;;;;;9.57;4.90;;;10.90;99.90;;;;;;5092038;28;20264;-78
2023/05/28 01:55:11;;;;;;;13.63;5.40;;;10.90;99.90;;;;;;5092319;28;20515;-79
2023/05/28 01:57:39;;;;;;;9.73;4.50;;;10.80;99.90;;;;;;5092142;28;20218;-78
2023/05/28 02:00:11;;;;;;;12.50;5.37;;;10.80;99.90;;;;;;5092505;28;20234;-78
2023/05/28 02:02:40;;;;;;;15.53;5.37;;;10.70;99.90;;;;;;5092178;28;20246;-78
2023/05/28 02:05:09;;;;;;;10.63;4.80;;;10.70;99.90;;;;;;5110169;28;20203;-77
2023/05/28 02:07:37;;;;;;;9.30;4.60;;;10.70;99.90;;;;;;5112825;28;20346;-78
2023/05/28 02:10:06;;;;;;;10.40;4.60;;;10.70;99.90;;;;;;5112775;28;20274;-77
2023/05/28 02:12:34;;;;;;;12.00;4.90;;;10.70;99.90;;;;;;5094655;28;20217;-78
2023/05/28 02:15:02;;;;;;;9.67;4.47;;;10.60;99.90;;;;;;5092218;28;20572;-78
2023/05/28 02:17:32;;;;;;;12.80;5.10;;;10.60;99.90;;;;;;5092094;28;20245;-78
2023/05/28 02:20:00;;;;;;;12.20;5.13;;;10.60;99.90;;;;;;5091908;28;20578;-78
2023/05/28 02:22:28;;;;;;;10.43;4.83;;;10.60;99.90;;;;;;5092048;28;20222;-79
2023/05/28 02:24:56;;;;;;;12.03;4.90;;;10.60;99.90;;;;;;5092347;28;20294;-78
2023/05/28 02:27:25;;;;;;;11.07;5.00;;;10.50;99.90;;;;;;5092238;28;20234;-77
2023/05/28 02:29:53;;;;;;;8.47;4.53;;;10.50;99.90;;;;;;5092218;28;20211;-77
2023/05/28 02:32:21;;;;;;;8.37;4.50;;;10.50;99.90;;;;;;5098631;28;20255;-78
2023/05/28 02:34:54;;;;;;;12.70;4.73;;;10.50;99.90;;;;;;5112396;28;20592;-77
2023/05/28 02:37:23;;;;;;;12.80;4.70;;;10.50;99.90;;;;;;5101924;28;20305;-77
2023/05/28 02:39:52;;;;;;;11.00;5.20;;;10.60;99.90;;;;;;5091942;28;20206;-77
2023/05/28 02:42:20;;;;;;;11.60;5.00;;;10.60;99.90;;;;;;5091345;28;20573;-77
2023/05/28 02:44:48;;;;;;;8.57;4.83;;;10.60;99.90;;;;;;5091645;28;20203;-77
2023/05/28 02:47:16;;;;;;;9.40;4.40;;;10.50;99.90;;;;;;5092023;28;20214;-78
2023/05/28 02:49:44;;;;;;;11.07;5.40;;;10.50;99.90;;;;;;5092169;28;20207;-76
2023/05/28 02:52:14;;;;;;;10.27;5.30;;;10.50;99.90;;;;;;5091757;28;20203;-78
2023/05/28 02:54:42;;;;;;;11.67;4.90;;;10.50;99.90;;;;;;5091542;28;20241;-78
2023/05/28 02:57:10;;;;;;;10.40;5.17;;;10.50;99.90;;;;;;5091973;28;20256;-76
2023/05/28 02:59:39;;;;;;;10.23;4.97;;;10.50;99.90;;;;;;5091530;28;20676;-78
2023/05/28 03:02:07;;;;;;;14.00;5.30;;;10.40;99.90;;;;;;5091430;28;20405;-78
2023/05/28 03:04:35;;;;;;;8.77;4.63;;;10.40;99.90;;;;;;5091963;28;20229;-79
2023/05/28 03:07:03;;;;;;;10.17;5.03;;;10.40;99.90;;;;;;5092136;28;20620;-77
2023/05/28 03:09:33;;;;;;;10.97;5.00;;;10.40;99.90;;;;;;5092401;28;20202;-77
2023/05/28 03:12:01;;;;;;;10.23;4.90;;;10.40;99.90;;;;;;5095482;28;20620;-77
2023/05/28 03:14:29;;;;;;;11.40;5.27;;;10.30;99.90;;;;;;5095910;28;20313;-78
2023/05/28 03:16:57;;;;;;;7.67;4.77;;;10.20;99.90;;;;;;5095772;28;20207;-77
2023/05/28 03:19:25;;;;;;;9.33;4.87;;;10.20;99.90;;;;;;5095479;28;20257;-77
2023/05/28 03:21:53;;;;;;;11.43;4.77;;;10.20;99.90;;;;;;5095209;28;20302;-77
2023/05/28 03:24:22;;;;;;;10.17;4.60;;;10.10;99.90;;;;;;5095476;28;20211;-78
2023/05/28 03:26:51;;;;;;;8.73;4.57;;;10.10;99.90;;;;;;5095205;28;20226;-78
2023/05/28 03:29:19;;;;;;;9.77;4.40;;;10.10;99.90;;;;;;5095070;28;20203;-78
2023/05/28 03:31:48;;;;;;;12.87;4.97;;;10.20;99.90;;;;;;5108576;28;20213;-77
2023/05/28 03:34:16;;;;;;;10.73;4.67;;;10.20;99.90;;;;;;5115593;28;20259;-77
2023/05/28 03:36:44;;;;;;;11.77;5.10;;;10.20;99.90;;;;;;5115452;28;20230;-78
2023/05/28 03:39:12;;;;;;;10.27;5.53;;;10.10;99.90;;;;;;5115284;28;20213;-77
2023/05/28 03:41:41;;;;;;;12.23;5.13;;;10.20;99.90;;;;;;5096206;28;20211;-78
2023/05/28 03:44:10;;;;;;;9.20;4.70;;;10.20;99.90;;;;;;5095108;28;20373;-78
2023/05/28 03:46:40;;;;;;;10.63;4.97;;;10.20;99.90;;;;;;5094836;28;20211;-77
2023/05/28 03:49:08;;;;;;;8.77;4.73;;;10.20;99.90;;;;;;5094932;28;20207;-76
2023/05/28 03:51:37;;;;;;;10.03;4.80;;;10.20;99.90;;;;;;5094853;28;20236;-77
2023/05/28 03:54:05;;;;;;;13.77;4.77;;;10.20;99.90;;;;;;5094577;28;20221;-76
2023/05/28 03:56:35;;;;;;;11.70;5.30;;;10.20;99.90;;;;;;5094829;28;20295;-77
2023/05/28 03:59:03;;;;;;;11.93;4.83;;;10.20;99.90;;;;;;5094563;28;20268;-78
2023/05/28 04:01:34;;;;;;;9.40;4.60;;;10.20;99.90;;;;;;5094673;28;20660;-78
2023/05/28 04:04:02;;;;;;;11.90;4.73;;;10.20;99.90;;;;;;5094424;28;20672;-77
2023/05/28 04:06:32;;;;;;;10.03;4.77;;;10.20;99.90;;;;;;5094691;28;20205;-77
2023/05/28 04:09:00;;;;;;;9.37;4.50;;;10.20;99.90;;;;;;5094394;28;20211;-76
2023/05/28 04:11:29;;;;;;;8.83;4.63;;;10.20;99.90;;;;;;5094431;28;20575;-78
2023/05/28 04:13:58;;;;;;;12.50;4.67;;;10.20;99.90;;;;;;5094275;28;20620;-77
2023/05/28 04:16:26;;;;;;;9.10;4.53;;;10.20;99.90;;;;;;5094066;28;20323;-78
2023/05/28 04:18:56;;;;;;;14.53;4.90;;;10.30;99.90;;;;;;5094482;28;20655;-79
2023/05/28 04:21:24;;;;;;;9.90;4.90;;;10.30;99.90;;;;;;5093792;28;20310;-79
2023/05/28 04:23:52;;;;;;;11.80;5.50;;;10.30;99.90;;;;;;5093646;28;20238;-79
2023/05/28 04:26:22;;;;;;;8.57;4.67;;;10.40;99.90;;;;;;5094379;28;20258;-78
2023/05/28 04:28:50;;;;;;;10.57;4.80;;;10.40;99.90;;;;;;5094688;28;20207;-77
2023/05/28 04:31:18;;;;;;;8.43;4.80;;;10.50;99.90;;;;;;5114661;28;20210;-77
2023/05/28 04:33:47;;;;;;;11.30;4.90;;;10.50;99.90;;;;;;5098587;28;20625;-78
2023/05/28 04:36:16;;;;;;;10.37;4.67;;;10.50;99.90;;;;;;5093592;28;20234;-77
2023/05/28 04:38:45;;;;;;;12.20;4.90;;;10.60;99.90;;;;;;5094094;28;20236;-77
2023/05/28 04:41:14;;;;;;;10.60;4.83;;;10.70;99.90;;;;;;5093745;28;20260;-78
2023/05/28 04:43:43;;;;;;;11.60;4.53;;;10.80;99.90;;;;;;5093676;28;20214;-77
2023/05/28 04:46:11;;;;;;;11.77;4.97;;;10.80;99.90;;;;;;5093819;28;20290;-77
2023/05/28 04:48:40;;;;;;;11.03;4.57;;;10.90;99.90;;;;;;5094030;28;20280;-77
2023/05/28 04:51:08;;;;;;;8.07;4.43;;;11.00;99.90;;;;;;5093909;28;20207;-77
2023/05/28 04:53:38;;;;;;;11.57;5.03;;;11.00;99.90;;;;;;5093450;28;20294;-77
2023/05/28 04:56:06;;;;;;;11.50;5.23;;;11.10;99.90;;;;;;5093678;28;20256;-77
2023/05/28 04:58:34;;;;;;;10.10;4.93;;;11.30;99.90;;;;;;5093992;28;20287;-77
2023/05/28 05:01:04;;;;;;;10.10;5.13;;;11.40;99.90;;;;;;5093183;28;20213;-78
2023/05/28 05:03:33;;;;;;;10.97;4.30;;;11.50;99.90;;;;;;5093027;28;20217;-77
2023/05/28 05:06:02;;;;;;;11.50;4.60;;;11.60;99.90;;;;;;5093677;28;20635;-77
2023/05/28 05:08:31;;;;;;;11.83;5.03;;;11.70;99.90;;;;;;5093392;28;20260;-78
2023/05/28 05:11:02;;;;;;;11.03;4.60;;;11.80;99.90;;;;;;5093447;28;20214;-77
2023/05/28 05:13:30;;;;;;;10.83;5.00;;;11.90;99.90;;;;;;5093074;28;20256;-76
2023/05/28 05:15:58;;;;;;;15.07;5.33;;;12.00;99.90;;;;;;5093197;28;20564;-78
2023/05/28 05:18:26;;;;;;;11.00;5.00;;;12.20;99.90;;;;;;5110492;28;20636;-77
2023/05/28 05:20:55;;;;;;;10.53;4.60;;;12.20;99.90;;;;;;5113683;28;20255;-77
2023/05/28 05:23:24;;;;;;;11.33;4.83;;;12.30;99.90;;;;;;5113046;28;20218;-77
2023/05/28 05:25:52;;;;;;;13.63;5.00;;;12.40;99.90;;;;;;5103296;28;20354;-78
2023/05/28 05:28:21;;;;;;;10.67;4.70;;;12.50;99.90;;;;;;5101139;28;20286;-77
2023/05/28 05:30:49;;;;;;;11.33;4.87;;;12.60;99.90;;;;;;5113208;28;20210;-75
2023/05/28 05:33:17;;;;;;;10.87;4.90;;;12.70;99.90;;;;;;5105880;28;20202;-76
2023/05/28 05:35:46;;;;;;;12.23;4.97;;;12.70;99.90;;;;;;5092302;28;20233;-77
2023/05/28 05:38:14;;;;;;;8.57;4.50;;;12.80;99.90;;;;;;5092916;28;20195;-77
2023/05/28 05:40:43;;;;;;;9.30;4.43;;;13.00;99.90;;;;;;5092681;28;20289;-76
2023/05/28 05:43:11;;;;;;;12.73;4.53;;;13.10;99.90;;;;;;5108305;28;20206;-77
2023/05/28 05:45:40;;;;;;;7.80;4.23;;;13.20;99.90;;;;;;5113302;28;20240;-76
2023/05/28 05:48:09;;;;;;;7.93;4.73;;;13.50;99.90;;;;;;5112494;28;20738;-77
2023/05/28 05:50:48;;;;;;;12.20;4.70;;;13.80;99.90;;;;;;5097732;28;20238;-75
2023/05/28 05:53:16;;;;;;;12.20;4.33;;;14.40;99.90;;;;;;5092404;28;20191;-76
2023/05/28 05:55:45;;;;;;;11.20;4.40;;;15.30;99.90;;;;;;5092487;28;20207;-77
2023/05/28 05:58:13;;;;;;;9.30;4.33;;;16.50;97.90;;;;;;5092094;28;20211;-76
2023/05/28 06:00:43;;;;;;;7.70;3.73;;;17.60;93.40;;;;;;5092093;28;20316;-77
2023/05/28 06:03:12;;;;;;;9.63;4.23;;;18.60;92.20;;;;;;5091930;28;20218;-78
2023/05/28 06:05:40;;;;;;;8.87;4.27;;;19.10;84.00;;;;;;5091944;28;20238;-78
2023/05/28 06:08:08;;;;;;;8.70;3.87;;;19.10;83.10;;;;;;5091856;28;20372;-75
2023/05/28 06:10:37;;;;;;;10.13;4.50;;;19.60;81.30;;;;;;5092094;28;20210;-76
2023/05/28 06:13:05;;;;;;;8.47;4.30;;;20.30;76.20;;;;;;5091600;28;20206;-78
2023/05/28 06:15:33;;;;;;;9.60;4.43;;;19.40;76.30;;;;;;5092555;28;20206;-76
2023/05/28 06:18:04;;;;;;;11.23;4.47;;;19.80;74.60;;;;;;5091918;28;20226;-76
2023/05/28 06:20:33;;;;;;;10.43;4.17;;;19.90;72.30;;;;;;5091977;28;20302;-77
2023/05/28 06:23:01;;;;;;;9.27;4.50;;;19.80;72.20;;;;;;5091842;28;20210;-76
2023/05/28 06:25:29;;;;;;;10.47;4.60;;;19.90;71.90;;;;;;5092012;28;20219;-77
2023/05/28 06:27:57;;;;;;;8.73;4.00;;;20.40;71.50;;;;;;5098714;28;20630;-77
2023/05/28 06:30:26;;;;;;;8.40;3.97;;;21.00;69.30;;;;;;5092160;28;20214;-77
2023/05/28 06:32:54;;;;;;;6.70;3.67;;;21.40;69.70;;;;;;5091673;28;20238;-76
2023/05/28 06:35:24;;;;;;;9.60;4.57;;;21.60;68.30;;;;;;5091727;28;20211;-77
2023/05/28 06:37:52;;;;;;;10.40;4.60;;;22.40;61.80;;;;;;5091785;28;20753;-76
2023/05/28 06:40:20;;;;;;;8.73;4.23;;;22.40;60.20;;;;;;5092069;28;20253;-76
2023/05/28 06:42:48;;;;;;;11.63;4.70;;;23.30;60.60;;;;;;5092421;28;20618;-76
2023/05/28 06:45:17;;;;;;;9.40;4.23;;;23.50;59.30;;;;;;5103170;28;20202;-76
2023/05/28 06:47:45;;;;;;;9.32;4.28;;;23.50;58.00;;;;;;5108055;28;20205;-77
2023/05/28 06:50:14;;;;;;;8.80;4.32;;;24.70;54.50;;;;;;5124843;28;20231;-78
2023/05/28 06:52:44;;;;;;;8.65;4.28;;;24.40;53.60;;;;;;5124914;28;20667;-76
2023/05/28 06:55:12;;;;;;;11.13;4.28;;;24.70;51.60;;;;;;5124381;28;20194;-78
2023/05/28 06:57:40;;;;;;;9.20;4.55;;;24.90;53.00;;;;;;5128012;27;20210;-75
2023/05/28 07:00:15;;;;;;;8.07;4.20;;;25.00;49.30;;;;;;5128461;28;20214;-77
2023/05/28 07:02:43;;;;;;;7.57;4.38;;;25.00;48.90;;;;;;5119578;28;20257;-77
2023/05/28 07:05:12;;;;;;;8.32;4.40;;;23.90;49.60;;;;;;5116156;28;20584;-77
2023/05/28 07:07:40;;;;;;;8.43;4.30;;;23.50;50.50;;;;;;5099473;28;20203;-79
2023/05/28 07:10:11;;;;;;;11.93;4.50;;;22.40;52.20;;;;;;5099302;28;20206;-80
2023/05/28 07:12:42;;;;;;;7.30;3.88;;;23.30;52.70;;;;;;5098828;28;20187;-76
2023/05/28 07:15:11;;;;;;;8.25;3.80;;;23.80;51.30;;;;;;5098907;28;20668;-76
2023/05/28 07:17:39;;;;;;;8.80;4.38;;;24.50;52.40;;;;;;5090274;28;20722;-74
2023/05/28 07:20:08;;;;;;;11.90;4.65;;;24.80;49.30;;;;;;5098450;28;20210;-76
2023/05/28 07:22:36;;;;;;;9.80;4.20;;;25.00;47.40;;;;;;5097634;28;20227;-77
2023/05/28 07:25:06;;;;;;;7.15;4.07;;;24.10;49.20;;;;;;5102901;28;20251;-76
2023/05/28 07:27:35;;;;;;;14.63;4.60;;;24.80;50.40;;;;;;5118503;28;20222;-75
2023/05/28 07:30:04;;;;;;;9.90;4.32;;;25.50;48.00;;;;;;5119041;28;20210;-76
2023/05/28 07:32:33;;;;;;;10.07;4.15;;;26.20;45.00;;;;;;5112501;28;20268;-76
2023/05/28 07:35:01;;;;;;;8.48;3.83;;;26.10;45.60;;;;;;5098247;28;20242;-75
2023/05/28 07:37:29;;;;;;;8.60;4.15;;;26.40;45.50;;;;;;5097831;28;20279;-76
2023/05/28 07:39:57;;;;;;;8.32;4.32;;;26.00;43.60;;;;;;5098159;27;20238;-75
2023/05/28 07:42:25;;;;;;;8.10;4.43;;;25.50;44.30;;;;;;5098082;28;20641;-76
2023/05/28 07:44:55;;;;;;;8.60;4.15;;;24.30;47.30;;;;;;5098520;28;20232;-75
2023/05/28 07:47:23;;;;;;;8.68;4.07;;;24.40;48.40;;;;;;5098341;28;20203;-76
2023/05/28 07:49:52;;;;;;;9.35;4.20;;;25.10;48.70;;;;;;5110507;27;20206;-76
2023/05/28 07:52:20;;;;;;;8.98;4.03;;;25.20;46.30;;;;;;5118471;28;20217;-76
2023/05/28 07:54:49;;;;;;;8.25;4.15;;;25.10;44.80;;;;;;5118153;28;20664;-77
2023/05/28 07:57:17;;;;;;;8.00;3.47;;;25.40;46.60;;;;;;5112608;28;20254;-78
2023/05/28 07:59:45;;;;;;;8.65;3.78;;;25.80;46.00;;;;;;5095122;28;20206;-76
2023/05/28 08:02:14;;;;;;;8.27;4.05;;;26.70;43.00;;;;;;5094521;28;20214;-78
2023/05/28 08:04:42;;;;;;;7.78;4.22;;;26.90;44.20;;;;;;5095159;28;20356;-75
2023/05/28 08:07:12;;;;;;;9.07;3.78;;;27.10;42.40;;;;;;5094847;28;20226;-76
2023/05/28 08:09:41;;;;;;;9.90;4.05;;;27.60;41.40;;;;;;5094944;28;20272;-75
2023/05/28 08:12:09;;;;;;;8.98;3.83;;;26.90;39.80;;;;;;5094204;28;20211;-77
2023/05/28 08:14:37;;;;;;;10.95;4.13;;;26.60;39.90;;;;;;5095168;28;20236;-78
2023/05/28 08:17:06;;;;;;;10.63;4.03;;;26.70;40.40;;;;;;5095189;28;20206;-78
2023/05/28 08:19:35;;;;;;;8.30;3.88;;;26.60;42.50;;;;;;5095117;28;20202;-78
2023/05/28 08:22:03;;;;;;;6.15;3.50;;;26.40;39.40;;;;;;5095073;28;20257;-77
2023/05/28 08:24:31;;;;;;;8.10;4.30;;;26.20;40.30;;;;;;5105596;28;20225;-76
2023/05/28 08:27:01;;;;;;;9.00;4.30;;;26.80;40.20;;;;;;5115989;28;20230;-76
2023/05/28 08:29:29;;;;;;;7.85;3.72;;;26.00;40.50;;;;;;5115628;28;20207;-75
2023/05/28 08:31:58;;;;;;;7.93;4.20;;;26.40;42.80;;;;;;5110421;28;20249;-77
2023/05/28 08:34:27;;;;;;;7.80;3.95;;;26.90;39.50;;;;;;5094876;28;20211;-78
2023/05/28 08:36:57;;;;;;;7.63;4.00;;;27.10;39.70;;;;;;5094298;28;20219;-77
2023/05/28 08:39:26;;;;;;;8.27;3.80;;;28.50;37.20;;;;;;5093553;28;20253;-76
2023/05/28 08:41:55;;;;;;;10.25;4.10;;;28.60;35.80;;;;;;5094068;28;20213;-76
2023/05/28 08:44:23;;;;;;;9.63;4.28;;;28.30;36.70;;;;;;5093918;28;20688;-76
2023/05/28 08:46:52;;;;;;;8.88;4.15;;;28.40;35.90;;;;;;5094336;28;20231;-77
2023/05/28 08:49:24;;;;;;;8.45;3.97;;;28.20;36.90;;;;;;5094267;28;20207;-76
2023/05/28 08:51:55;;;;;;;7.88;3.90;;;27.30;36.40;;;;;;5095092;28;20207;-76
2023/05/28 08:54:25;;;;;;;8.70;3.97;;;27.60;36.40;;;;;;5095376;28;20256;-76
2023/05/28 08:56:54;;;;;;;9.32;4.38;;;27.90;37.00;;;;;;5095209;28;20214;-77
2023/05/28 08:59:23;;;;;;;10.02;4.32;;;27.40;36.60;;;;;;5095302;28;20222;-75
2023/05/28 09:01:52;;;;;;;7.93;4.07;;;27.80;37.20;;;;;;5094313;28;20767;-78
2023/05/28 09:04:20;;;;;;;9.07;4.10;;;28.70;35.90;;;;;;5093651;28;20723;-76
2023/05/28 09:06:49;;;;;;;8.00;3.90;;;28.30;33.80;;;;;;5092858;28;20692;-75
2023/05/28 09:09:17;;;;;;;9.45;4.07;;;28.90;36.20;;;;;;5093335;28;20203;-78
2023/05/28 09:11:48;;;;;;;9.98;4.35;;;29.50;36.00;;;;;;5093629;28;20264;-77
2023/05/28 09:14:19;;;;;;;10.57;4.15;;;29.40;34.70;;;;;;5098756;28;20202;-76
2023/05/28 09:16:47;;;;;;;8.15;3.72;;;30.10;31.50;;;;;;5113638;28;20715;-75
2023/05/28 09:19:17;;;;;;;7.65;4.22;;;29.10;33.30;;;;;;5113417;28;20321;-74
2023/05/28 09:21:55;;;;;;;5.60;3.53;;;29.70;34.40;;;;;;5113223;28;20221;-75
2023/05/28 09:24:25;;;;;;;8.18;3.72;;;29.40;32.20;;;;;;5095699;28;20215;-77
2023/05/28 09:26:57;;;;;;;9.30;4.30;;;28.40;34.70;;;;;;5093135;28;20249;-75
2023/05/28 09:29:26;;;;;;;6.00;3.70;;;28.80;33.30;;;;;;5092937;28;20210;-78
2023/05/28 09:31:58;;;;;;;8.02;4.10;;;29.10;32.80;;;;;;5095157;28;20202;-75
2023/05/28 09:34:29;;;;;;;8.05;3.75;;;29.50;31.70;;;;;;5113408;28;20714;-76
2023/05/28 09:37:02;;;;;;;9.10;3.90;;;29.60;31.60;;;;;;5114579;28;20228;-78
2023/05/28 09:39:30;;;;;;;9.30;4.28;;;28.50;34.50;;;;;;5112938;28;20257;-75
2023/05/28 09:42:06;;;;;;;8.27;3.95;;;29.70;33.10;;;;;;5102672;28;20207;-75
2023/05/28 09:44:34;;;;;;;10.40;4.07;;;29.60;31.10;;;;;;5092835;28;20207;-75
2023/05/28 09:47:12;;;;;;;7.97;4.03;;;29.70;31.80;;;;;;5092618;28;20594;-77
2023/05/28 09:49:40;;;;;;;7.55;4.32;;;30.00;32.00;;;;;;5067770;28;20247;-77
2023/05/28 09:52:10;;;;;;;8.95;4.10;;;30.00;32.20;;;;;;5110629;28;20214;-76
2023/05/28 09:54:41;;;;;;;9.77;4.40;;;30.40;32.70;;;;;;5113235;28;20238;-76
2023/05/28 09:57:12;;;;;;;8.43;3.97;;;31.00;30.20;;;;;;5113132;28;20229;-76
2023/05/28 09:59:44;;;;;;;8.63;3.72;;;30.00;32.40;;;;;;5101799;28;20629;-75
2023/05/28 10:02:23;;;;;;;10.60;3.90;;;29.80;31.80;;;;;;5092752;28;20222;-75
2023/05/28 10:04:55;;;;;;;7.20;4.13;;;29.40;33.50;;;;;;5076108;28;20245;-75
2023/05/28 10:07:26;;;;;;;10.68;4.15;;;29.80;34.30;;;;;;5093142;28;20203;-76
2023/05/28 10:09:56;;;;;;;7.72;4.25;;;30.10;34.20;;;;;;5092694;28;20184;-76
2023/05/28 10:12:29;;;;;;;9.75;4.03;;;30.60;29.70;;;;;;5092502;28;20211;-76
2023/05/28 10:14:59;;;;;;;9.75;4.45;;;31.50;29.70;;;;;;5092490;28;20241;-74
2023/05/28 10:17:28;;;;;;;7.90;3.75;;;30.30;29.80;;;;;;5092757;28;20222;-75
2023/05/28 10:19:56;;;;;;;8.10;4.03;;;30.70;29.00;;;;;;5092176;28;20319;-76
2023/05/28 10:22:25;;;;;;;7.75;3.90;;;30.90;29.30;;;;;;5109260;28;20206;-74
2023/05/28 10:24:54;;;;;;;8.93;3.97;;;30.80;30.10;;;;;;5093251;28;20210;-76
2023/05/28 10:27:31;;;;;;;6.65;4.15;;;29.40;29.70;;;;;;5092549;28;20246;-73
2023/05/28 10:30:04;;;;;;;7.75;3.85;;;30.30;29.90;;;;;;5092725;28;20256;-75
2023/05/28 10:32:40;;;;;;;7.22;3.90;;;30.80;30.80;;;;;;5092004;28;20230;-77
2023/05/28 10:35:12;;;;;;;8.35;4.05;;;30.70;28.50;;;;;;5092151;28;20205;-76
2023/05/28 10:37:40;;;;;;;6.53;3.97;;;30.40;25.80;;;;;;5092149;28;20210;-76
2023/05/28 10:40:10;;;;;;;6.90;3.45;;;30.30;27.10;;;;;;5092920;28;20252;-77
2023/05/28 10:42:43;;;;;;;9.07;3.90;;;30.00;28.90;;;;;;5092408;28;20580;-75
2023/05/28 10:45:12;;;;;;;8.32;4.20;;;30.30;28.40;;;;;;5092940;28;20260;-76
2023/05/28 10:47:41;;;;;;;6.88;3.78;;;30.10;28.80;;;;;;5084468;28;20241;-77
2023/05/28 10:50:14;;;;;;;8.20;4.25;;;28.80;30.60;;;;;;5092052;28;20221;-76
2023/05/28 10:53:05;;;;;;;6.93;3.97;;;29.50;33.10;;;;;;5091306;28;20662;-76
2023/05/28 10:55:50;;;;;;;7.28;3.67;;;29.70;29.50;;;;;;5091748;28;20213;-77
2023/05/28 10:58:26;;;;;;;7.25;3.58;;;30.20;29.00;;;;;;5098651;28;20206;-75
2023/05/28 11:01:01;;;;;;;8.00;4.10;;;29.40;28.70;;;;;;5112199;28;20702;-75
2023/05/28 11:03:43;;;;;;;8.73;3.65;;;29.20;29.30;;;;;;5094569;28;20673;-75
2023/05/28 11:06:12;;;;;;;6.13;3.60;;;29.30;28.60;;;;;;5107434;28;20232;-75
2023/05/28 11:08:42;;;;;;;6.70;3.72;;;30.00;29.20;;;;;;5091925;28;20663;-75
2023/05/28 11:11:13;;;;;;;7.90;3.90;;;29.20;30.00;;;;;;5091772;28;20207;-75
2023/05/28 11:13:47;;;;;;;7.22;4.00;;;28.60;30.50;;;;;;5091601;28;20203;-78
2023/05/28 11:16:16;;;;;;;7.57;3.80;;;28.80;29.40;;;;;;5091782;28;20574;-78
2023/05/28 11:19:04;;;;;;;8.98;4.22;;;28.80;31.40;;;;;;5091710;28;20668;-75
2023/05/28 11:21:32;;;;;;;9.82;3.95;;;28.80;30.30;;;;;;5092014;28;20290;-76
2023/05/28 11:24:02;;;;;;;7.95;3.50;;;28.90;30.40;;;;;;5091956;28;20206;-75
2023/05/28 11:26:32;;;;;;;7.90;3.70;;;28.10;30.00;;;;;;5091579;28;20229;-75
2023/05/28 11:29:02;;;;;;;7.13;3.45;;;28.20;28.70;;;;;;5091876;28;20203;-76
2023/05/28 11:31:39;;;;;;;6.95;4.07;;;28.30;29.80;;;;;;5094195;28;20206;-77
2023/05/28 11:34:08;;;;;;;8.57;3.80;;;27.70;31.10;;;;;;5095608;28;20618;-75
2023/05/28 11:36:40;;;;;;;7.53;3.63;;;27.00;33.40;;;;;;5095939;28;20242;-77
2023/05/28 11:39:08;;;;;;;8.82;4.07;;;27.20;32.40;;;;;;5095602;28;20268;-76
2023/05/28 11:41:37;;;;;;;7.97;3.75;;;27.20;31.40;;;;;;5095508;28;20207;-75
2023/05/28 11:44:21;;;;;;;7.90;3.40;;;27.00;31.10;;;;;;5108052;28;20210;-77
2023/05/28 11:46:51;;;;;;;7.65;3.90;;;26.80;33.80;;;;;;5115895;28;20217;-76
2023/05/28 11:49:19;;;;;;;7.33;3.73;;;26.80;33.00;;;;;;5115832;28;20251;-76
2023/05/28 11:51:48;;;;;;;8.93;3.83;;;26.80;29.70;;;;;;5115273;28;20210;-77
2023/05/28 11:54:16;;;;;;;6.90;3.83;;;26.50;31.40;;;;;;5115560;28;20294;-78
2023/05/28 11:56:44;;;;;;;5.87;3.63;;;26.30;30.90;;;;;;5115874;28;20209;-78
2023/05/28 11:59:12;;;;;;;8.63;3.90;;;26.10;29.70;;;;;;5115908;28;20226;-79
2023/05/28 12:01:41;;;;;;;5.97;3.70;;;25.90;32.50;;;;;;5102105;28;20549;-77
2023/05/28 12:04:09;;;;;;;6.70;4.00;;;25.80;32.70;;;;;;5094489;28;20207;-77
2023/05/28 12:06:51;;;;;;;5.77;3.47;;;26.10;32.20;;;;;;5094474;28;20279;-76
2023/05/28 12:09:19;;;;;;;7.10;3.90;;;26.30;33.50;;;;;;5095017;28;20280;-78
2023/05/28 12:12:05;;;;;;;8.80;3.97;;;26.00;31.20;;;;;;5094553;28;20202;-78
2023/05/28 12:14:34;;;;;;;9.37;4.10;;;26.00;30.40;;;;;;5094265;28;20233;-76
2023/05/28 12:17:08;;;;;;;8.93;4.10;;;25.60;32.60;;;;;;5094505;28;20207;-78
2023/05/28 12:19:37;;;;;;;8.40;3.90;;;25.30;29.80;;;;;;5110549;28;20253;-77
2023/05/28 12:22:13;;;;;;;7.80;3.90;;;25.60;29.30;;;;;;5114606;28;20210;-77
2023/05/28 12:24:49;;;;;;;7.77;3.97;;;25.60;31.00;;;;;;5114844;28;20187;-75
2023/05/28 12:27:18;;;;;;;6.87;3.57;;;25.50;30.00;;;;;;5110843;28;20226;-76
2023/05/28 12:29:46;;;;;;;8.10;3.57;;;25.30;32.20;;;;;;5094426;28;20203;-76
2023/05/28 12:32:16;;;;;;;8.10;3.97;;;25.30;34.60;;;;;;5093808;28;20210;-77
2023/05/28 12:34:44;;;;;;;6.80;3.67;;;25.20;32.10;;;;;;5094327;28;20279;-78
2023/05/28 12:37:12;;;;;;;6.20;3.43;;;24.90;31.10;;;;;;5093988;28;20211;-78
2023/05/28 12:39:40;;;;;;;6.80;3.60;;;24.90;34.40;;;;;;5093797;28;20226;-75
2023/05/28 12:42:09;;;;;;;7.00;4.03;;;25.40;34.20;;;;;;5093325;28;20218;-76
2023/05/28 12:44:37;;;;;;;8.73;4.00;;;25.40;34.30;;;;;;5093916;28;20237;-77
2023/05/28 12:47:05;;;;;;;6.33;3.80;;;25.40;31.20;;;;;;5094163;28;20272;-77
2023/05/28 12:49:35;;;;;;;7.10;3.53;;;25.40;30.50;;;;;;5111331;28;20214;-78
2023/05/28 12:52:03;;;;;;;7.30;3.87;;;25.30;30.10;;;;;;5113838;28;20744;-75
2023/05/28 12:54:34;;;;;;;8.00;4.00;;;25.40;33.10;;;;;;5114413;28;20256;-78